Newcastle, Nebraska
Current Conditions -  °F | °C
As of 4:35 PM on Monday 24 Nov 2014 (Local Time) from KLCG Reporting Station
Clear Clear  
Wind Chill: 20°   Ceiling: Unl
Heat Index: 31°   Visibility: 10mi
Dew Point: 11°   Wind: 17mph
Humidity: 43%   Direction: 320°NW
Pressure: 29.9"   Gusts: 24mph
Location:  42.65°N, 96.87°W
Report Text: KLCG 242235Z AUTO 32015G21KT 10SM CLR 00/M12 A2990 RMK AO2 T10041117
Loading
Personal Weather Stations






























Interactive Weather Map New forecast layout! Learn more

10-Day Weather Forecast

Advertisements
Track Severe Weather on mobile